sensor_id;sensor_type;location;lat;lon;timestamp;temperature;humidity
26378;DHT22;14078;50.974;6.786;2023-11-21T00:01:15;8.90;99.90
26378;DHT22;14078;50.974;6.786;2023-11-21T00:03:42;8.90;99.90
26378;DHT22;14078;50.974;6.786;2023-11-21T00:06:10;9.00;99.90
26378;DHT22;14078;50.974;6.786;2023-11-21T00:08:37;9.00;99.90
26378;DHT22;14078;50.974;6.786;2023-11-21T00:11:04;8.90;99.90
26378;DHT22;14078;50.974;6.786;2023-11-21T00:13:31;8.90;99.90
26378;DHT22;14078;50.974;6.786;2023-11-21T00:15:58;8.90;99.90
26378;DHT22;14078;50.974;6.786;2023-11-21T00:18:25;8.90;99.90
26378;DHT22;14078;50.974;6.786;2023-11-21T00:20:51;8.80;99.90
26378;DHT22;14078;50.974;6.786;2023-11-21T00:23:19;8.80;99.90
26378;DHT22;14078;50.974;6.786;2023-11-21T00:25:46;8.80;99.90
26378;DHT22;14078;50.974;6.786;2023-11-21T00:28:13;8.80;99.90
26378;DHT22;14078;50.974;6.786;2023-11-21T00:30:39;8.80;99.90
26378;DHT22;14078;50.974;6.786;2023-11-21T00:33:06;8.80;99.90
26378;DHT22;14078;50.974;6.786;2023-11-21T00:35:33;8.80;99.90
26378;DHT22;14078;50.974;6.786;2023-11-21T00:38:00;8.80;99.90
26378;DHT22;14078;50.974;6.786;2023-11-21T00:40:28;8.80;99.90
26378;DHT22;14078;50.974;6.786;2023-11-21T00:42:55;8.80;99.90
26378;DHT22;14078;50.974;6.786;2023-11-21T00:45:22;8.80;99.90
26378;DHT22;14078;50.974;6.786;2023-11-21T00:47:48;8.80;99.90
26378;DHT22;14078;50.974;6.786;2023-11-21T00:50:15;8.70;99.90
26378;DHT22;14078;50.974;6.786;2023-11-21T00:52:41;8.70;99.90
26378;DHT22;14078;50.974;6.786;2023-11-21T00:55:08;8.80;99.90
26378;DHT22;14078;50.974;6.786;2023-11-21T00:57:38;8.80;99.90
26378;DHT22;14078;50.974;6.786;2023-11-21T01:00:06;8.80;99.90
26378;DHT22;14078;50.974;6.786;2023-11-21T01:02:34;8.80;99.90
26378;DHT22;14078;50.974;6.786;2023-11-21T01:05:02;8.80;99.90
26378;DHT22;14078;50.974;6.786;2023-11-21T01:07:29;8.70;99.90
26378;DHT22;14078;50.974;6.786;2023-11-21T01:09:55;8.70;99.90
26378;DHT22;14078;50.974;6.786;2023-11-21T01:12:22;8.70;99.90
26378;DHT22;14078;50.974;6.786;2023-11-21T01:14:51;8.70;99.90
26378;DHT22;14078;50.974;6.786;2023-11-21T01:17:18;8.70;99.90
26378;DHT22;14078;50.974;6.786;2023-11-21T01:19:45;8.70;99.90
26378;DHT22;14078;50.974;6.786;2023-11-21T01:22:11;8.60;99.90
26378;DHT22;14078;50.974;6.786;2023-11-21T01:24:38;8.60;99.90
26378;DHT22;14078;50.974;6.786;2023-11-21T01:27:05;8.60;99.90
26378;DHT22;14078;50.974;6.786;2023-11-21T01:29:32;8.60;99.90
26378;DHT22;14078;50.974;6.786;2023-11-21T01:32:02;8.60;99.90
26378;DHT22;14078;50.974;6.786;2023-11-21T01:34:29;8.60;99.90
26378;DHT22;14078;50.974;6.786;2023-11-21T01:36:56;8.60;99.90
26378;DHT22;14078;50.974;6.786;2023-11-21T01:39:23;8.60;99.90
26378;DHT22;14078;50.974;6.786;2023-11-21T01:41:51;8.50;99.90
26378;DHT22;14078;50.974;6.786;2023-11-21T01:44:18;8.50;99.90
26378;DHT22;14078;50.974;6.786;2023-11-21T01:46:45;8.50;99.90
26378;DHT22;14078;50.974;6.786;2023-11-21T01:49:13;8.50;99.90
26378;DHT22;14078;50.974;6.786;2023-11-21T01:51:41;8.50;99.90
26378;DHT22;14078;50.974;6.786;2023-11-21T01:54:08;8.40;99.90
26378;DHT22;14078;50.974;6.786;2023-11-21T01:56:37;8.40;99.90
26378;DHT22;14078;50.974;6.786;2023-11-21T01:59:04;8.40;99.90
26378;DHT22;14078;50.974;6.786;2023-11-21T02:01:32;8.40;99.90
26378;DHT22;14078;50.974;6.786;2023-11-21T02:03:59;8.40;99.90
26378;DHT22;14078;50.974;6.786;2023-11-21T02:06:28;8.40;99.90
26378;DHT22;14078;50.974;6.786;2023-11-21T02:08:56;8.40;99.90
26378;DHT22;14078;50.974;6.786;2023-11-21T02:11:25;8.40;99.90
26378;DHT22;14078;50.974;6.786;2023-11-21T02:13:52;8.30;99.90
26378;DHT22;14078;50.974;6.786;2023-11-21T02:16:19;8.30;99.90
26378;DHT22;14078;50.974;6.786;2023-11-21T02:18:47;8.30;99.90
26378;DHT22;14078;50.974;6.786;2023-11-21T02:21:14;8.30;99.90
26378;DHT22;14078;50.974;6.786;2023-11-21T02:23:43;8.30;99.90
26378;DHT22;14078;50.974;6.786;2023-11-21T02:26:11;8.40;99.90
26378;DHT22;14078;50.974;6.786;2023-11-21T02:28:39;8.40;99.90
26378;DHT22;14078;50.974;6.786;2023-11-21T02:31:06;8.40;99.90
26378;DHT22;14078;50.974;6.786;2023-11-21T02:33:33;8.50;99.90
26378;DHT22;14078;50.974;6.786;2023-11-21T02:36:00;8.50;99.90
26378;DHT22;14078;50.974;6.786;2023-11-21T02:38:26;8.50;99.90
26378;DHT22;14078;50.974;6.786;2023-11-21T02:40:56;8.50;99.90
26378;DHT22;14078;50.974;6.786;2023-11-21T02:43:23;8.50;99.90
26378;DHT22;14078;50.974;6.786;2023-11-21T02:45:50;8.50;99.90
26378;DHT22;14078;50.974;6.786;2023-11-21T02:48:16;8.60;99.90
26378;DHT22;14078;50.974;6.786;2023-11-21T02:50:43;8.50;99.90
26378;DHT22;14078;50.974;6.786;2023-11-21T02:53:10;8.50;99.90
26378;DHT22;14078;50.974;6.786;2023-11-21T02:55:38;8.50;99.90
26378;DHT22;14078;50.974;6.786;2023-11-21T02:58:06;8.50;99.90
26378;DHT22;14078;50.974;6.786;2023-11-21T03:00:32;8.50;99.90
26378;DHT22;14078;50.974;6.786;2023-11-21T03:02:59;8.50;99.90
26378;DHT22;14078;50.974;6.786;2023-11-21T03:05:26;8.50;99.90
26378;DHT22;14078;50.974;6.786;2023-11-21T03:07:54;8.40;99.90
26378;DHT22;14078;50.974;6.786;2023-11-21T03:10:21;8.40;99.90
26378;DHT22;14078;50.974;6.786;2023-11-21T03:12:47;8.40;99.90
26378;DHT22;14078;50.974;6.786;2023-11-21T03:15:15;8.40;99.90
26378;DHT22;14078;50.974;6.786;2023-11-21T03:17:42;8.40;99.90
26378;DHT22;14078;50.974;6.786;2023-11-21T03:20:09;8.40;99.90
26378;DHT22;14078;50.974;6.786;2023-11-21T03:22:37;8.40;99.90
26378;DHT22;14078;50.974;6.786;2023-11-21T03:25:05;8.50;99.90
26378;DHT22;14078;50.974;6.786;2023-11-21T03:27:35;8.50;99.90
26378;DHT22;14078;50.974;6.786;2023-11-21T03:30:02;8.50;99.90
26378;DHT22;14078;50.974;6.786;2023-11-21T03:32:33;8.50;99.90
26378;DHT22;14078;50.974;6.786;2023-11-21T03:35:01;8.50;99.90
26378;DHT22;14078;50.974;6.786;2023-11-21T03:37:28;8.50;99.90
26378;DHT22;14078;50.974;6.786;2023-11-21T03:39:55;8.60;99.90
26378;DHT22;14078;50.974;6.786;2023-11-21T03:42:21;8.70;99.90
26378;DHT22;14078;50.974;6.786;2023-11-21T03:44:48;8.70;99.90
26378;DHT22;14078;50.974;6.786;2023-11-21T03:47:15;8.70;99.90
26378;DHT22;14078;50.974;6.786;2023-11-21T03:49:43;8.70;99.90
26378;DHT22;14078;50.974;6.786;2023-11-21T03:52:10;8.70;99.90
26378;DHT22;14078;50.974;6.786;2023-11-21T03:54:37;8.70;99.90
26378;DHT22;14078;50.974;6.786;2023-11-21T03:57:04;8.70;99.90
26378;DHT22;14078;50.974;6.786;2023-11-21T03:59:31;8.70;99.90
26378;DHT22;14078;50.974;6.786;2023-11-21T04:01:57;8.70;99.90
26378;DHT22;14078;50.974;6.786;2023-11-21T04:04:25;8.70;99.90
26378;DHT22;14078;50.974;6.786;2023-11-21T04:06:53;8.70;99.90
26378;DHT22;14078;50.974;6.786;2023-11-21T04:09:20;8.70;99.90
26378;DHT22;14078;50.974;6.786;2023-11-21T04:11:50;8.70;99.90
26378;DHT22;14078;50.974;6.786;2023-11-21T04:14:17;8.70;99.90
26378;DHT22;14078;50.974;6.786;2023-11-21T04:16:43;8.80;99.90
26378;DHT22;14078;50.974;6.786;2023-11-21T04:19:10;8.70;99.90
26378;DHT22;14078;50.974;6.786;2023-11-21T04:21:39;8.70;99.90
26378;DHT22;14078;50.974;6.786;2023-11-21T04:24:08;8.70;99.90
26378;DHT22;14078;50.974;6.786;2023-11-21T04:26:35;8.70;99.90
26378;DHT22;14078;50.974;6.786;2023-11-21T04:29:01;8.80;99.90
26378;DHT22;14078;50.974;6.786;2023-11-21T04:31:28;8.80;99.90
26378;DHT22;14078;50.974;6.786;2023-11-21T04:33:55;8.80;99.90
26378;DHT22;14078;50.974;6.786;2023-11-21T04:36:21;8.80;99.90
26378;DHT22;14078;50.974;6.786;2023-11-21T04:38:48;8.80;99.90
26378;DHT22;14078;50.974;6.786;2023-11-21T04:41:16;8.80;99.90
26378;DHT22;14078;50.974;6.786;2023-11-21T04:43:43;8.80;99.90
26378;DHT22;14078;50.974;6.786;2023-11-21T04:46:10;8.80;99.90
26378;DHT22;14078;50.974;6.786;2023-11-21T04:48:36;8.80;99.90
26378;DHT22;14078;50.974;6.786;2023-11-21T04:51:03;8.80;99.90
26378;DHT22;14078;50.974;6.786;2023-11-21T04:53:30;8.80;99.90
26378;DHT22;14078;50.974;6.786;2023-11-21T04:55:57;8.80;99.90
26378;DHT22;14078;50.974;6.786;2023-11-21T04:58:25;8.80;99.90
26378;DHT22;14078;50.974;6.786;2023-11-21T05:00:52;8.80;99.90
26378;DHT22;14078;50.974;6.786;2023-11-21T05:03:19;8.80;99.90
26378;DHT22;14078;50.974;6.786;2023-11-21T05:05:46;8.70;99.90
26378;DHT22;14078;50.974;6.786;2023-11-21T05:08:13;8.70;99.90
26378;DHT22;14078;50.974;6.786;2023-11-21T05:10:39;8.70;99.90
26378;DHT22;14078;50.974;6.786;2023-11-21T05:13:06;8.70;99.90
26378;DHT22;14078;50.974;6.786;2023-11-21T05:15:36;8.70;99.90
26378;DHT22;14078;50.974;6.786;2023-11-21T05:18:03;8.70;99.90
26378;DHT22;14078;50.974;6.786;2023-11-21T05:20:30;8.70;99.90
26378;DHT22;14078;50.974;6.786;2023-11-21T05:22:56;8.70;99.90
26378;DHT22;14078;50.974;6.786;2023-11-21T05:25:24;8.60;99.90
26378;DHT22;14078;50.974;6.786;2023-11-21T05:27:51;8.70;99.90
26378;DHT22;14078;50.974;6.786;2023-11-21T05:30:18;8.70;99.90
26378;DHT22;14078;50.974;6.786;2023-11-21T05:32:46;8.60;99.90
26378;DHT22;14078;50.974;6.786;2023-11-21T05:35:15;8.60;99.90
26378;DHT22;14078;50.974;6.786;2023-11-21T05:37:41;8.60;99.90
26378;DHT22;14078;50.974;6.786;2023-11-21T05:40:09;8.50;99.90
26378;DHT22;14078;50.974;6.786;2023-11-21T05:42:36;8.60;99.90
26378;DHT22;14078;50.974;6.786;2023-11-21T05:45:04;8.60;99.90
26378;DHT22;14078;50.974;6.786;2023-11-21T05:47:36;8.50;99.90
26378;DHT22;14078;50.974;6.786;2023-11-21T05:50:06;8.60;99.90
26378;DHT22;14078;50.974;6.786;2023-11-21T05:52:35;8.60;99.90
26378;DHT22;14078;50.974;6.786;2023-11-21T05:55:02;8.50;99.90
26378;DHT22;14078;50.974;6.786;2023-11-21T05:57:30;8.50;99.90
26378;DHT22;14078;50.974;6.786;2023-11-21T05:59:56;8.50;99.90
26378;DHT22;14078;50.974;6.786;2023-11-21T06:02:23;8.50;99.90
26378;DHT22;14078;50.974;6.786;2023-11-21T06:04:51;8.50;99.90
26378;DHT22;14078;50.974;6.786;2023-11-21T06:07:19;8.50;99.90
26378;DHT22;14078;50.974;6.786;2023-11-21T06:09:46;8.50;99.90
26378;DHT22;14078;50.974;6.786;2023-11-21T06:12:14;8.50;99.90
26378;DHT22;14078;50.974;6.786;2023-11-21T06:14:41;8.50;99.90
26378;DHT22;14078;50.974;6.786;2023-11-21T06:17:08;8.50;99.90
26378;DHT22;14078;50.974;6.786;2023-11-21T06:19:35;8.50;99.90
26378;DHT22;14078;50.974;6.786;2023-11-21T06:22:02;8.50;99.90
26378;DHT22;14078;50.974;6.786;2023-11-21T06:24:30;8.50;99.90
26378;DHT22;14078;50.974;6.786;2023-11-21T06:26:56;8.50;99.90
26378;DHT22;14078;50.974;6.786;2023-11-21T06:29:24;8.50;99.90
26378;DHT22;14078;50.974;6.786;2023-11-21T06:31:52;8.40;99.90
26378;DHT22;14078;50.974;6.786;2023-11-21T06:34:20;8.40;99.90
26378;DHT22;14078;50.974;6.786;2023-11-21T06:36:47;8.40;99.90
26378;DHT22;14078;50.974;6.786;2023-11-21T06:39:13;8.40;99.90
26378;DHT22;14078;50.974;6.786;2023-11-21T06:41:43;8.50;99.90
26378;DHT22;14078;50.974;6.786;2023-11-21T06:44:10;8.50;99.90
26378;DHT22;14078;50.974;6.786;2023-11-21T06:46:36;8.50;99.90
26378;DHT22;14078;50.974;6.786;2023-11-21T06:49:07;8.50;99.90
26378;DHT22;14078;50.974;6.786;2023-11-21T06:51:34;8.50;99.90
26378;DHT22;14078;50.974;6.786;2023-11-21T06:54:01;8.40;99.90
26378;DHT22;14078;50.974;6.786;2023-11-21T06:56:27;8.50;99.90
26378;DHT22;14078;50.974;6.786;2023-11-21T06:58:55;8.50;99.90
26378;DHT22;14078;50.974;6.786;2023-11-21T07:01:22;8.50;99.90
26378;DHT22;14078;50.974;6.786;2023-11-21T07:03:50;8.50;99.90
26378;DHT22;14078;50.974;6.786;2023-11-21T07:06:16;8.50;99.90
26378;DHT22;14078;50.974;6.786;2023-11-21T07:08:43;8.50;99.90
26378;DHT22;14078;50.974;6.786;2023-11-21T07:11:10;8.60;99.90
26378;DHT22;14078;50.974;6.786;2023-11-21T07:13:37;8.60;99.90
26378;DHT22;14078;50.974;6.786;2023-11-21T07:16:06;8.60;99.90
26378;DHT22;14078;50.974;6.786;2023-11-21T07:18:32;8.60;99.90
26378;DHT22;14078;50.974;6.786;2023-11-21T07:20:59;8.60;99.90
26378;DHT22;14078;50.974;6.786;2023-11-21T07:23:26;8.60;99.90
26378;DHT22;14078;50.974;6.786;2023-11-21T07:25:52;8.60;99.90
26378;DHT22;14078;50.974;6.786;2023-11-21T07:28:19;8.60;99.90
26378;DHT22;14078;50.974;6.786;2023-11-21T07:30:46;8.60;99.90
26378;DHT22;14078;50.974;6.786;2023-11-21T07:33:14;8.60;99.90
26378;DHT22;14078;50.974;6.786;2023-11-21T07:35:40;8.60;99.90
26378;DHT22;14078;50.974;6.786;2023-11-21T07:38:07;8.60;99.90
26378;DHT22;14078;50.974;6.786;2023-11-21T07:40:34;8.60;99.90
26378;DHT22;14078;50.974;6.786;2023-11-21T07:43:01;8.60;99.90
26378;DHT22;14078;50.974;6.786;2023-11-21T07:48:46;8.60;99.90
26378;DHT22;14078;50.974;6.786;2023-11-21T07:51:13;8.60;99.90
26378;DHT22;14078;50.974;6.786;2023-11-21T07:53:40;8.70;99.90
26378;DHT22;14078;50.974;6.786;2023-11-21T07:56:08;8.70;99.90
26378;DHT22;14078;50.974;6.786;2023-11-21T07:58:35;8.70;99.90
26378;DHT22;14078;50.974;6.786;2023-11-21T08:01:02;8.80;99.90
26378;DHT22;14078;50.974;6.786;2023-11-21T08:07:23;8.80;99.90
26378;DHT22;14078;50.974;6.786;2023-11-21T08:09:50;8.80;99.90
26378;DHT22;14078;50.974;6.786;2023-11-21T08:12:16;8.80;99.90
26378;DHT22;14078;50.974;6.786;2023-11-21T08:14:43;8.80;99.90
26378;DHT22;14078;50.974;6.786;2023-11-21T08:17:10;8.90;99.90
26378;DHT22;14078;50.974;6.786;2023-11-21T08:19:37;8.90;99.90
26378;DHT22;14078;50.974;6.786;2023-11-21T08:22:03;9.00;99.90
26378;DHT22;14078;50.974;6.786;2023-11-21T08:24:34;9.00;99.90
26378;DHT22;14078;50.974;6.786;2023-11-21T08:27:01;9.10;99.90
26378;DHT22;14078;50.974;6.786;2023-11-21T08:29:29;9.20;99.90
26378;DHT22;14078;50.974;6.786;2023-11-21T08:31:57;9.20;99.90
26378;DHT22;14078;50.974;6.786;2023-11-21T08:34:24;9.20;99.90
26378;DHT22;14078;50.974;6.786;2023-11-21T08:36:50;9.10;99.90
26378;DHT22;14078;50.974;6.786;2023-11-21T08:39:17;9.20;99.90
26378;DHT22;14078;50.974;6.786;2023-11-21T08:41:46;9.20;99.90
26378;DHT22;14078;50.974;6.786;2023-11-21T08:44:13;9.20;99.90
26378;DHT22;14078;50.974;6.786;2023-11-21T08:46:41;9.20;99.90
26378;DHT22;14078;50.974;6.786;2023-11-21T08:49:09;9.20;99.90
26378;DHT22;14078;50.974;6.786;2023-11-21T08:51:37;9.30;99.90
26378;DHT22;14078;50.974;6.786;2023-11-21T08:54:04;9.40;99.90
26378;DHT22;14078;50.974;6.786;2023-11-21T08:56:33;9.30;99.90
26378;DHT22;14078;50.974;6.786;2023-11-21T08:59:01;9.40;99.90
26378;DHT22;14078;50.974;6.786;2023-11-21T09:01:28;9.40;99.90
26378;DHT22;14078;50.974;6.786;2023-11-21T09:03:56;9.30;99.90
26378;DHT22;14078;50.974;6.786;2023-11-21T09:06:23;9.30;99.90
26378;DHT22;14078;50.974;6.786;2023-11-21T09:08:50;9.30;99.90
26378;DHT22;14078;50.974;6.786;2023-11-21T09:33:15;9.40;99.90
26378;DHT22;14078;50.974;6.786;2023-11-21T09:35:42;9.30;99.90
26378;DHT22;14078;50.974;6.786;2023-11-21T09:38:09;9.30;99.90
26378;DHT22;14078;50.974;6.786;2023-11-21T09:40:37;9.30;99.90
26378;DHT22;14078;50.974;6.786;2023-11-21T09:43:06;9.30;99.90
26378;DHT22;14078;50.974;6.786;2023-11-21T09:45:35;9.30;99.90
26378;DHT22;14078;50.974;6.786;2023-11-21T09:48:02;9.40;99.90
26378;DHT22;14078;50.974;6.786;2023-11-21T09:50:31;9.40;99.90
26378;DHT22;14078;50.974;6.786;2023-11-21T09:53:08;9.40;99.90
26378;DHT22;14078;50.974;6.786;2023-11-21T09:55:41;9.30;99.90
26378;DHT22;14078;50.974;6.786;2023-11-21T09:58:09;9.30;99.90
26378;DHT22;14078;50.974;6.786;2023-11-21T10:00:40;9.30;99.90
26378;DHT22;14078;50.974;6.786;2023-11-21T10:03:07;9.40;99.90
26378;DHT22;14078;50.974;6.786;2023-11-21T10:05:35;9.40;99.90
26378;DHT22;14078;50.974;6.786;2023-11-21T10:08:04;9.40;99.90
26378;DHT22;14078;50.974;6.786;2023-11-21T10:10:32;9.50;99.90
26378;DHT22;14078;50.974;6.786;2023-11-21T10:13:02;9.50;99.90
26378;DHT22;14078;50.974;6.786;2023-11-21T10:15:33;9.50;99.90
26378;DHT22;14078;50.974;6.786;2023-11-21T10:18:02;9.50;99.90
26378;DHT22;14078;50.974;6.786;2023-11-21T10:20:30;9.60;99.90
26378;DHT22;14078;50.974;6.786;2023-11-21T10:22:58;9.60;99.90
26378;DHT22;14078;50.974;6.786;2023-11-21T10:25:24;9.60;99.90
26378;DHT22;14078;50.974;6.786;2023-11-21T10:27:57;9.70;99.90
26378;DHT22;14078;50.974;6.786;2023-11-21T10:30:28;9.70;99.90
26378;DHT22;14078;50.974;6.786;2023-11-21T10:32:58;9.70;99.90
26378;DHT22;14078;50.974;6.786;2023-11-21T10:35:26;9.80;99.90
26378;DHT22;14078;50.974;6.786;2023-11-21T10:38:05;9.90;99.90
26378;DHT22;14078;50.974;6.786;2023-11-21T10:40:37;9.90;99.90
26378;DHT22;14078;50.974;6.786;2023-11-21T10:43:06;10.00;99.90
26378;DHT22;14078;50.974;6.786;2023-11-21T10:45:34;10.00;99.90
26378;DHT22;14078;50.974;6.786;2023-11-21T10:48:05;10.00;99.90
26378;DHT22;14078;50.974;6.786;2023-11-21T10:50:33;10.00;99.90
26378;DHT22;14078;50.974;6.786;2023-11-21T10:53:01;10.10;99.90
26378;DHT22;14078;50.974;6.786;2023-11-21T10:55:31;10.10;99.90
26378;DHT22;14078;50.974;6.786;2023-11-21T10:57:59;10.00;99.90
26378;DHT22;14078;50.974;6.786;2023-11-21T11:00:27;10.00;99.90
26378;DHT22;14078;50.974;6.786;2023-11-21T11:02:54;10.00;99.90
26378;DHT22;14078;50.974;6.786;2023-11-21T11:05:22;10.00;99.90
26378;DHT22;14078;50.974;6.786;2023-11-21T11:07:55;10.00;99.90
26378;DHT22;14078;50.974;6.786;2023-11-21T11:10:25;10.00;99.90
26378;DHT22;14078;50.974;6.786;2023-11-21T11:12:54;10.00;99.90
26378;DHT22;14078;50.974;6.786;2023-11-21T11:15:21;10.00;99.90
26378;DHT22;14078;50.974;6.786;2023-11-21T11:17:48;10.10;99.90
26378;DHT22;14078;50.974;6.786;2023-11-21T11:20:16;10.20;99.90
26378;DHT22;14078;50.974;6.786;2023-11-21T11:22:50;10.20;99.90
26378;DHT22;14078;50.974;6.786;2023-11-21T11:25:30;10.20;99.90
26378;DHT22;14078;50.974;6.786;2023-11-21T11:28:06;10.10;99.90
26378;DHT22;14078;50.974;6.786;2023-11-21T11:30:43;10.30;99.90
26378;DHT22;14078;50.974;6.786;2023-11-21T11:33:19;10.30;99.90
26378;DHT22;14078;50.974;6.786;2023-11-21T11:35:55;10.30;99.90
26378;DHT22;14078;50.974;6.786;2023-11-21T11:38:23;10.20;99.90
26378;DHT22;14078;50.974;6.786;2023-11-21T11:40:53;10.20;99.90
26378;DHT22;14078;50.974;6.786;2023-11-21T11:43:28;10.30;99.90
26378;DHT22;14078;50.974;6.786;2023-11-21T11:45:56;10.20;99.90
26378;DHT22;14078;50.974;6.786;2023-11-21T11:48:24;10.20;99.90
26378;DHT22;14078;50.974;6.786;2023-11-21T11:51:02;10.20;99.90
26378;DHT22;14078;50.974;6.786;2023-11-21T11:53:35;10.30;99.90
26378;DHT22;14078;50.974;6.786;2023-11-21T11:56:30;10.30;99.90
26378;DHT22;14078;50.974;6.786;2023-11-21T11:59:02;10.20;99.90
26378;DHT22;14078;50.974;6.786;2023-11-21T12:01:33;10.30;99.90
26378;DHT22;14078;50.974;6.786;2023-11-21T12:04:25;10.30;99.90
26378;DHT22;14078;50.974;6.786;2023-11-21T12:07:01;10.30;99.90
26378;DHT22;14078;50.974;6.786;2023-11-21T12:09:30;10.30;99.90
26378;DHT22;14078;50.974;6.786;2023-11-21T12:11:57;10.40;99.90
26378;DHT22;14078;50.974;6.786;2023-11-21T12:14:26;10.40;99.90
26378;DHT22;14078;50.974;6.786;2023-11-21T12:16:54;10.40;99.90
26378;DHT22;14078;50.974;6.786;2023-11-21T12:19:21;10.40;99.90
26378;DHT22;14078;50.974;6.786;2023-11-21T12:21:49;10.30;99.90
26378;DHT22;14078;50.974;6.786;2023-11-21T12:24:16;10.30;99.90
26378;DHT22;14078;50.974;6.786;2023-11-21T12:26:43;10.20;99.90
26378;DHT22;14078;50.974;6.786;2023-11-21T12:29:10;10.20;99.90
26378;DHT22;14078;50.974;6.786;2023-11-21T12:31:38;10.10;99.90
26378;DHT22;14078;50.974;6.786;2023-11-21T12:34:06;10.10;99.90
26378;DHT22;14078;50.974;6.786;2023-11-21T12:36:34;10.10;99.90
26378;DHT22;14078;50.974;6.786;2023-11-21T12:39:01;10.10;99.90
26378;DHT22;14078;50.974;6.786;2023-11-21T12:41:29;10.10;99.90
26378;DHT22;14078;50.974;6.786;2023-11-21T12:43:56;10.10;99.90
26378;DHT22;14078;50.974;6.786;2023-11-21T12:46:24;10.10;99.90
26378;DHT22;14078;50.974;6.786;2023-11-21T12:48:55;10.10;99.90
26378;DHT22;14078;50.974;6.786;2023-11-21T12:51:22;10.10;99.90
26378;DHT22;14078;50.974;6.786;2023-11-21T12:53:49;10.20;99.90
26378;DHT22;14078;50.974;6.786;2023-11-21T12:56:16;10.20;99.90
26378;DHT22;14078;50.974;6.786;2023-11-21T12:58:45;10.30;99.90
26378;DHT22;14078;50.974;6.786;2023-11-21T13:01:12;10.40;99.90
26378;DHT22;14078;50.974;6.786;2023-11-21T13:03:45;10.50;99.90
26378;DHT22;14078;50.974;6.786;2023-11-21T13:06:15;10.50;99.90
26378;DHT22;14078;50.974;6.786;2023-11-21T13:08:43;10.50;99.90
26378;DHT22;14078;50.974;6.786;2023-11-21T13:11:11;10.60;99.90
26378;DHT22;14078;50.974;6.786;2023-11-21T13:13:40;10.60;99.90
26378;DHT22;14078;50.974;6.786;2023-11-21T13:16:08;10.60;99.90
26378;DHT22;14078;50.974;6.786;2023-11-21T13:18:35;10.60;99.90
26378;DHT22;14078;50.974;6.786;2023-11-21T13:21:04;10.50;99.90
26378;DHT22;14078;50.974;6.786;2023-11-21T13:23:37;10.40;99.90
26378;DHT22;14078;50.974;6.786;2023-11-21T13:26:04;10.40;99.90
26378;DHT22;14078;50.974;6.786;2023-11-21T13:28:31;10.30;99.90
26378;DHT22;14078;50.974;6.786;2023-11-21T13:30:58;10.40;99.90
26378;DHT22;14078;50.974;6.786;2023-11-21T13:33:28;10.40;99.90
26378;DHT22;14078;50.974;6.786;2023-11-21T13:35:55;10.40;99.90
26378;DHT22;14078;50.974;6.786;2023-11-21T13:38:23;10.40;99.90
26378;DHT22;14078;50.974;6.786;2023-11-21T13:40:52;10.40;99.90
26378;DHT22;14078;50.974;6.786;2023-11-21T13:43:21;10.40;99.90
26378;DHT22;14078;50.974;6.786;2023-11-21T13:45:50;10.40;99.90
26378;DHT22;14078;50.974;6.786;2023-11-21T13:48:21;10.30;99.90
26378;DHT22;14078;50.974;6.786;2023-11-21T13:50:53;10.30;99.90
26378;DHT22;14078;50.974;6.786;2023-11-21T13:53:24;10.30;99.90
26378;DHT22;14078;50.974;6.786;2023-11-21T13:55:53;10.40;99.90
26378;DHT22;14078;50.974;6.786;2023-11-21T13:58:21;10.40;99.90
26378;DHT22;14078;50.974;6.786;2023-11-21T14:00:51;10.30;99.90
26378;DHT22;14078;50.974;6.786;2023-11-21T14:03:22;10.40;99.90
26378;DHT22;14078;50.974;6.786;2023-11-21T14:05:58;10.30;99.90
26378;DHT22;14078;50.974;6.786;2023-11-21T14:08:26;10.40;99.90
26378;DHT22;14078;50.974;6.786;2023-11-21T14:10:55;10.30;99.90
26378;DHT22;14078;50.974;6.786;2023-11-21T14:13:23;10.30;99.90
26378;DHT22;14078;50.974;6.786;2023-11-21T14:15:50;10.30;99.90
26378;DHT22;14078;50.974;6.786;2023-11-21T14:18:19;10.20;99.90
26378;DHT22;14078;50.974;6.786;2023-11-21T14:20:53;10.20;99.90
26378;DHT22;14078;50.974;6.786;2023-11-21T14:23:20;10.30;99.90
26378;DHT22;14078;50.974;6.786;2023-11-21T14:25:47;10.30;99.90
26378;DHT22;14078;50.974;6.786;2023-11-21T14:28:15;10.30;99.90
26378;DHT22;14078;50.974;6.786;2023-11-21T14:30:42;10.30;99.90
26378;DHT22;14078;50.974;6.786;2023-11-21T14:33:08;10.30;99.90
26378;DHT22;14078;50.974;6.786;2023-11-21T14:35:37;10.30;99.90
26378;DHT22;14078;50.974;6.786;2023-11-21T14:38:03;10.30;99.90
26378;DHT22;14078;50.974;6.786;2023-11-21T14:40:31;10.30;99.90
26378;DHT22;14078;50.974;6.786;2023-11-21T14:43:01;10.20;99.90
26378;DHT22;14078;50.974;6.786;2023-11-21T14:45:32;10.20;99.90
26378;DHT22;14078;50.974;6.786;2023-11-21T14:47:59;10.20;99.90
26378;DHT22;14078;50.974;6.786;2023-11-21T14:50:33;10.20;99.90
26378;DHT22;14078;50.974;6.786;2023-11-21T14:53:16;10.20;99.90
26378;DHT22;14078;50.974;6.786;2023-11-21T14:55:48;10.20;99.90
26378;DHT22;14078;50.974;6.786;2023-11-21T14:58:23;10.10;99.90
26378;DHT22;14078;50.974;6.786;2023-11-21T15:00:54;10.10;99.90
26378;DHT22;14078;50.974;6.786;2023-11-21T15:03:24;10.10;99.90
26378;DHT22;14078;50.974;6.786;2023-11-21T15:06:09;10.10;99.90
26378;DHT22;14078;50.974;6.786;2023-11-21T15:08:50;10.10;99.90
26378;DHT22;14078;50.974;6.786;2023-11-21T15:11:23;10.10;99.90
26378;DHT22;14078;50.974;6.786;2023-11-21T15:13:56;10.10;99.90
26378;DHT22;14078;50.974;6.786;2023-11-21T15:16:23;10.10;99.90
26378;DHT22;14078;50.974;6.786;2023-11-21T15:18:51;10.00;99.90
26378;DHT22;14078;50.974;6.786;2023-11-21T15:21:18;10.10;99.90
26378;DHT22;14078;50.974;6.786;2023-11-21T15:23:47;10.00;99.90
26378;DHT22;14078;50.974;6.786;2023-11-21T15:26:13;10.10;99.90
26378;DHT22;14078;50.974;6.786;2023-11-21T15:28:40;10.00;99.90
26378;DHT22;14078;50.974;6.786;2023-11-21T15:31:07;10.00;99.90
26378;DHT22;14078;50.974;6.786;2023-11-21T15:33:35;10.00;99.90
26378;DHT22;14078;50.974;6.786;2023-11-21T15:36:03;10.00;99.90
26378;DHT22;14078;50.974;6.786;2023-11-21T15:38:30;10.00;99.90
26378;DHT22;14078;50.974;6.786;2023-11-21T15:40:57;9.90;99.90
26378;DHT22;14078;50.974;6.786;2023-11-21T15:43:24;9.90;99.90
26378;DHT22;14078;50.974;6.786;2023-11-21T15:45:52;9.90;99.90
26378;DHT22;14078;50.974;6.786;2023-11-21T15:48:19;9.90;99.90
26378;DHT22;14078;50.974;6.786;2023-11-21T15:50:47;9.90;99.90
26378;DHT22;14078;50.974;6.786;2023-11-21T15:53:16;9.90;99.90
26378;DHT22;14078;50.974;6.786;2023-11-21T15:55:42;9.80;99.90
26378;DHT22;14078;50.974;6.786;2023-11-21T15:58:09;9.80;99.90
26378;DHT22;14078;50.974;6.786;2023-11-21T16:00:36;9.80;99.90
26378;DHT22;14078;50.974;6.786;2023-11-21T16:03:03;9.80;99.90
26378;DHT22;14078;50.974;6.786;2023-11-21T16:05:30;9.80;99.90
26378;DHT22;14078;50.974;6.786;2023-11-21T16:07:58;9.80;99.90
26378;DHT22;14078;50.974;6.786;2023-11-21T16:10:24;9.80;99.90
26378;DHT22;14078;50.974;6.786;2023-11-21T16:12:51;9.80;99.90
26378;DHT22;14078;50.974;6.786;2023-11-21T16:15:18;9.80;99.90
26378;DHT22;14078;50.974;6.786;2023-11-21T16:17:45;9.80;99.90